createdAt,value
2023-02-12T00:01:17.071Z,17.77
2023-02-12T00:03:44.076Z,17.60
2023-02-12T00:06:15.800Z,18.10
2023-02-12T00:08:43.247Z,17.38
2023-02-12T00:11:15.884Z,18.20
2023-02-12T00:13:42.792Z,18.98
2023-02-12T00:16:13.285Z,20.02
2023-02-12T00:18:43.372Z,15.75
2023-02-12T00:21:10.240Z,18.80
2023-02-12T00:23:39.038Z,19.08
2023-02-12T00:26:10.428Z,17.98
2023-02-12T00:28:37.467Z,18.67
2023-02-12T00:31:09.596Z,16.27
2023-02-12T00:33:36.690Z,20.75
2023-02-12T00:36:04.468Z,19.25
2023-02-12T00:38:31.514Z,20.95
2023-02-12T00:40:58.138Z,19.67
2023-02-12T00:43:26.912Z,19.00
2023-02-12T00:45:53.852Z,16.50
2023-02-12T00:48:23.280Z,22.33
2023-02-12T00:50:52.430Z,19.27
2023-02-12T00:53:19.737Z,24.17
2023-02-12T00:55:46.504Z,26.60
2023-02-12T00:58:18.915Z,16.40
2023-02-12T01:00:45.896Z,18.27
2023-02-12T01:03:14.941Z,19.58
2023-02-12T01:05:44.605Z,21.30
2023-02-12T01:08:13.589Z,19.80
2023-02-12T01:10:40.999Z,21.63
2023-02-12T01:13:07.954Z,21.02
2023-02-12T01:15:34.551Z,20.75
2023-02-12T01:18:01.153Z,19.27
2023-02-12T01:20:27.755Z,20.55
2023-02-12T01:22:54.354Z,22.58
2023-02-12T01:25:21.074Z,18.85
2023-02-12T01:27:48.312Z,20.38
2023-02-12T01:30:16.167Z,18.25
2023-02-12T01:32:45.255Z,21.63
2023-02-12T01:35:14.123Z,22.20
2023-02-12T01:37:40.967Z,19.10
2023-02-12T01:40:09.061Z,19.27
2023-02-12T01:42:35.673Z,18.40
2023-02-12T01:45:14.497Z,17.85
2023-02-12T01:47:43.732Z,20.08
2023-02-12T01:50:17.278Z,19.23
2023-02-12T01:52:48.223Z,19.42
2023-02-12T01:55:15.877Z,17.80
2023-02-12T01:57:45.722Z,19.25
2023-02-12T02:00:15.815Z,19.90
2023-02-12T02:02:48.918Z,19.98
2023-02-12T02:05:23.849Z,19.58
2023-02-12T02:07:50.598Z,20.67
2023-02-12T02:10:17.352Z,21.02
2023-02-12T02:13:02.480Z,19.55
2023-02-12T02:15:33.546Z,19.42
2023-02-12T02:18:17.606Z,20.73
2023-02-12T02:21:02.476Z,18.67
2023-02-12T02:23:48.913Z,20.67
2023-02-12T02:27:06.501Z,19.75
2023-02-12T02:29:48.724Z,17.80
2023-02-12T02:32:35.147Z,19.20
2023-02-12T02:35:15.154Z,20.92
2023-02-12T02:37:54.436Z,21.92
2023-02-12T02:40:23.197Z,18.10
2023-02-12T02:42:58.928Z,16.65
2023-02-12T02:45:33.628Z,21.70
2023-02-12T02:48:12.598Z,26.08
2023-02-12T02:50:48.557Z,22.02
2023-02-12T02:53:24.297Z,24.02
2023-02-12T02:55:54.325Z,18.73
2023-02-12T02:58:25.894Z,20.08
2023-02-12T03:00:58.836Z,16.75
2023-02-12T03:03:52.046Z,18.38
2023-02-12T03:06:45.142Z,16.40
2023-02-12T03:09:20.641Z,21.52
2023-02-12T03:11:50.998Z,22.15
2023-02-12T03:14:26.582Z,14.80
2023-02-12T03:17:34.801Z,18.70
2023-02-12T03:20:13.732Z,17.05
2023-02-12T03:22:48.867Z,16.27
2023-02-12T03:25:20.550Z,19.10
2023-02-12T03:28:19.566Z,16.40
2023-02-12T03:31:02.498Z,16.17
2023-02-12T03:33:37.202Z,20.20
2023-02-12T03:36:31.737Z,16.65
2023-02-12T03:39:07.537Z,16.55
2023-02-12T03:41:49.630Z,15.02
2023-02-12T03:44:27.712Z,14.65
2023-02-12T03:47:26.999Z,15.82
2023-02-12T03:50:31.958Z,18.52
2023-02-12T03:53:00.791Z,16.65
2023-02-12T03:55:27.433Z,17.00
2023-02-12T03:58:00.971Z,22.88
2023-02-12T04:00:31.122Z,18.73
2023-02-12T04:03:00.678Z,19.02
2023-02-12T04:05:30.137Z,17.17
2023-02-12T04:07:58.956Z,16.20
2023-02-12T04:10:48.654Z,16.60
2023-02-12T04:13:21.736Z,15.45
2023-02-12T04:16:06.854Z,15.05
2023-02-12T04:18:45.120Z,15.60
2023-02-12T04:21:33.178Z,15.82
2023-02-12T04:24:16.917Z,16.17
2023-02-12T04:27:02.216Z,16.27
2023-02-12T04:29:49.346Z,16.80
2023-02-12T04:32:38.000Z,13.25
2023-02-12T04:35:16.066Z,16.88
2023-02-12T04:37:50.307Z,17.50
2023-02-12T04:40:19.781Z,17.13
2023-02-12T04:42:53.311Z,15.88
2023-02-12T04:45:29.089Z,16.85
2023-02-12T04:47:55.754Z,16.38
2023-02-12T04:50:22.420Z,18.13
2023-02-12T04:52:49.137Z,21.38
2023-02-12T04:55:16.217Z,19.05
2023-02-12T04:57:42.918Z,16.38
2023-02-12T05:00:12.946Z,16.42
2023-02-12T05:02:39.615Z,15.20
2023-02-12T05:05:11.591Z,19.48
2023-02-12T05:07:40.661Z,16.15
2023-02-12T05:10:10.988Z,16.40
2023-02-12T05:12:37.585Z,16.85
2023-02-12T05:15:06.885Z,18.95
2023-02-12T05:17:33.591Z,18.25
2023-02-12T05:20:00.296Z,18.92
2023-02-12T05:22:27.112Z,17.90
2023-02-12T05:24:56.022Z,18.83
2023-02-12T05:27:22.632Z,17.67
2023-02-12T05:29:49.176Z,16.52
2023-02-12T05:32:15.770Z,18.38
2023-02-12T05:34:42.361Z,18.35
2023-02-12T05:37:14.157Z,20.92
2023-02-12T05:39:43.044Z,18.90
2023-02-12T05:42:11.925Z,19.27
2023-02-12T05:44:38.640Z,18.75
2023-02-12T05:47:05.219Z,19.00
2023-02-12T05:49:31.798Z,19.75
2023-02-12T05:51:58.313Z,18.90
2023-02-12T05:54:24.921Z,19.90
2023-02-12T05:56:51.518Z,17.55
2023-02-12T05:59:22.478Z,25.42
2023-02-12T06:01:51.259Z,17.75
2023-02-12T06:04:20.773Z,20.92
2023-02-12T06:06:50.269Z,21.77
2023-02-12T06:09:16.988Z,18.80
2023-02-12T06:11:43.911Z,21.38
2023-02-12T06:14:16.166Z,20.33
2023-02-12T06:16:49.140Z,18.58
2023-02-12T06:19:16.779Z,18.65
2023-02-12T06:21:46.747Z,21.73
2023-02-12T06:24:15.076Z,21.17
2023-02-12T06:26:44.311Z,18.73
2023-02-12T06:29:11.494Z,22.00
2023-02-12T06:31:38.213Z,23.80
2023-02-12T06:34:12.359Z,19.23
2023-02-12T06:36:41.666Z,20.15
2023-02-12T06:39:08.784Z,20.30
2023-02-12T06:41:35.430Z,20.98
2023-02-12T06:44:04.968Z,20.88
2023-02-12T06:46:32.055Z,19.20
2023-02-12T06:49:00.367Z,21.70
2023-02-12T06:51:29.020Z,19.70
2023-02-12T06:53:56.328Z,19.15
2023-02-12T06:56:24.712Z,20.90
2023-02-12T06:58:56.664Z,18.40
2023-02-12T07:01:26.796Z,19.73
2023-02-12T07:03:56.472Z,20.45
2023-02-12T07:06:24.273Z,22.88
2023-02-12T07:08:51.484Z,23.52
2023-02-12T07:11:18.941Z,22.23
2023-02-12T07:13:45.688Z,21.08
2023-02-12T07:16:16.174Z,20.80
2023-02-12T07:18:44.319Z,23.67
2023-02-12T07:21:13.429Z,22.95
2023-02-12T07:23:40.366Z,21.80
2023-02-12T07:26:11.353Z,20.65
2023-02-12T07:28:38.589Z,24.30
2023-02-12T07:31:11.183Z,22.50
2023-02-12T07:33:38.484Z,25.30
2023-02-12T07:36:10.857Z,24.13
2023-02-12T07:38:40.877Z,22.35
2023-02-12T07:41:13.210Z,23.65
2023-02-12T07:43:41.791Z,23.20
2023-02-12T07:46:17.206Z,26.60
2023-02-12T07:48:45.281Z,22.88
2023-02-12T07:51:19.575Z,25.73
2023-02-12T07:53:46.932Z,24.70
2023-02-12T07:56:14.910Z,27.65
2023-02-12T07:58:42.898Z,23.40
2023-02-12T08:01:19.554Z,21.50
2023-02-12T08:03:50.404Z,23.05
2023-02-12T08:06:23.236Z,22.60
2023-02-12T08:08:58.533Z,21.67
2023-02-12T08:11:26.640Z,25.30
2023-02-12T08:13:53.320Z,24.10
2023-02-12T08:16:27.085Z,24.98
2023-02-12T08:19:14.350Z,24.35
2023-02-12T08:21:43.629Z,24.50
2023-02-12T08:24:10.692Z,29.23
2023-02-12T08:26:38.996Z,25.70
2023-02-12T08:29:11.937Z,26.58
2023-02-12T08:31:41.495Z,26.42
2023-02-12T08:34:17.409Z,25.98
2023-02-12T08:36:44.420Z,25.95
2023-02-12T08:39:11.346Z,25.13
2023-02-12T08:41:38.069Z,26.83
2023-02-12T08:44:05.574Z,27.05
2023-02-12T08:46:36.558Z,26.10
2023-02-12T08:49:09.458Z,26.52
2023-02-12T08:51:38.165Z,24.20
2023-02-12T08:54:07.177Z,26.00
2023-02-12T08:56:34.761Z,24.85
2023-02-12T08:59:04.718Z,26.77
2023-02-12T09:01:33.550Z,26.63
2023-02-12T09:04:03.024Z,26.63
2023-02-12T09:06:32.897Z,27.30
2023-02-12T09:08:59.548Z,26.13
2023-02-12T09:11:30.835Z,26.63
2023-02-12T09:14:05.930Z,26.55
2023-02-12T09:16:34.369Z,24.52
2023-02-12T09:19:02.080Z,27.45
2023-02-12T09:21:32.052Z,24.58
2023-02-12T09:23:58.860Z,25.92
2023-02-12T09:26:28.722Z,27.30
2023-02-12T09:28:55.886Z,25.02
2023-02-12T09:31:26.891Z,25.05
2023-02-12T09:33:55.584Z,25.88
2023-02-12T09:36:22.636Z,25.40
2023-02-12T09:38:51.544Z,25.48
2023-02-12T09:41:40.049Z,22.85
2023-02-12T09:44:47.888Z,25.90
2023-02-12T09:47:23.477Z,24.70
2023-02-12T09:50:18.131Z,24.48
2023-02-12T09:52:47.193Z,22.45
2023-02-12T09:55:20.924Z,20.92
2023-02-12T09:57:47.752Z,25.25
2023-02-12T10:00:31.989Z,27.92
2023-02-12T10:03:05.526Z,23.25
2023-02-12T10:05:41.272Z,19.65
2023-02-12T10:08:23.884Z,24.25
2023-02-12T10:11:18.392Z,20.05
2023-02-12T10:13:59.936Z,21.77
2023-02-12T10:17:01.477Z,22.83
2023-02-12T10:19:37.939Z,22.73
2023-02-12T10:22:04.456Z,22.17
2023-02-12T10:24:49.296Z,24.77
2023-02-12T10:27:24.703Z,25.58
2023-02-12T10:29:53.031Z,24.23
2023-02-12T10:32:25.879Z,24.15
2023-02-12T10:34:53.982Z,21.05
2023-02-12T10:37:25.614Z,23.05
2023-02-12T10:40:01.990Z,22.00
2023-02-12T10:42:45.066Z,19.35
2023-02-12T10:45:17.016Z,25.23
2023-02-12T10:47:46.152Z,23.42
2023-02-12T10:50:45.451Z,27.92
2023-02-12T10:53:18.666Z,20.23
2023-02-12T10:55:45.319Z,22.05
2023-02-12T10:58:24.332Z,18.98
2023-02-12T11:01:01.227Z,17.98
2023-02-12T11:03:34.350Z,20.10
2023-02-12T11:06:25.723Z,17.63
2023-02-12T11:08:53.162Z,20.33
2023-02-12T11:11:26.402Z,23.73
2023-02-12T11:14:16.248Z,18.70
2023-02-12T11:16:53.498Z,19.48
2023-02-12T11:19:25.868Z,15.85
2023-02-12T11:22:04.020Z,20.73
2023-02-12T11:24:30.792Z,16.33
2023-02-12T11:27:22.085Z,16.27
2023-02-12T11:30:10.374Z,17.63
2023-02-12T11:32:37.453Z,17.10
2023-02-12T11:35:25.066Z,21.40
2023-02-12T11:37:57.771Z,20.42
2023-02-12T11:40:28.518Z,18.67
2023-02-12T11:43:05.888Z,16.55
2023-02-12T11:45:44.725Z,17.35
2023-02-12T11:48:24.843Z,17.48
2023-02-12T11:50:55.312Z,17.13
2023-02-12T11:53:35.984Z,15.68
2023-02-12T11:56:06.039Z,15.18
2023-02-12T11:58:32.647Z,17.55
2023-02-12T12:00:59.244Z,16.63
2023-02-12T12:03:34.638Z,16.33
2023-02-12T12:06:27.494Z,19.08
2023-02-12T12:09:05.434Z,18.92
2023-02-12T12:11:59.335Z,17.67
2023-02-12T12:14:34.782Z,18.33
2023-02-12T12:17:38.690Z,18.48
2023-02-12T12:20:20.051Z,21.23
2023-02-12T12:23:16.230Z,19.27
2023-02-12T12:25:59.208Z,18.58
2023-02-12T12:28:44.675Z,20.02
2023-02-12T12:31:32.239Z,20.88
2023-02-12T12:34:25.852Z,18.63
2023-02-12T12:36:58.610Z,22.42
2023-02-12T12:39:40.402Z,21.08
2023-02-12T12:42:32.078Z,22.48
2023-02-12T12:45:36.926Z,22.95
2023-02-12T12:48:29.750Z,22.85
2023-02-12T12:51:12.403Z,21.63
2023-02-12T12:53:39.022Z,26.67
2023-02-12T12:56:18.672Z,23.05
2023-02-12T12:59:19.488Z,21.98
2023-02-12T13:02:17.576Z,23.55
2023-02-12T13:05:03.400Z,23.98
2023-02-12T13:08:07.238Z,19.42
2023-02-12T13:10:46.529Z,21.48
2023-02-12T13:13:35.038Z,23.38
2023-02-12T13:16:27.059Z,20.40
2023-02-12T13:19:12.306Z,21.90
2023-02-12T13:21:57.199Z,36.42
2023-02-12T13:24:35.570Z,26.85
2023-02-12T13:27:16.768Z,23.95
2023-02-12T13:29:51.184Z,24.10
2023-02-12T13:32:24.693Z,20.98
2023-02-12T13:34:57.207Z,22.45
2023-02-12T13:37:46.572Z,22.95
2023-02-12T13:40:30.675Z,24.15
2023-02-12T13:43:15.861Z,24.35
2023-02-12T13:45:48.504Z,22.77
2023-02-12T13:48:17.360Z,22.23
2023-02-12T13:51:01.061Z,21.73
2023-02-12T13:53:53.097Z,20.60
2023-02-12T13:56:37.742Z,22.63
2023-02-12T13:59:04.428Z,23.25
2023-02-12T14:01:47.528Z,24.30
2023-02-12T14:04:28.561Z,22.65
2023-02-12T14:07:07.819Z,23.75
2023-02-12T14:09:45.039Z,22.20
2023-02-12T14:12:14.423Z,22.20
2023-02-12T14:14:49.046Z,21.30
2023-02-12T14:17:30.925Z,19.15
2023-02-12T14:20:22.518Z,20.38
2023-02-12T14:22:49.120Z,21.20
2023-02-12T14:25:24.720Z,20.15
2023-02-12T14:28:18.352Z,21.90
2023-02-12T14:30:45.058Z,23.90
2023-02-12T14:33:21.250Z,22.60
2023-02-12T14:36:09.580Z,24.02
2023-02-12T14:38:47.854Z,24.83
2023-02-12T14:41:40.867Z,20.95
2023-02-12T14:44:30.551Z,22.15
2023-02-12T14:47:06.837Z,23.40
2023-02-12T14:49:38.824Z,22.60
2023-02-12T14:52:12.465Z,26.95
2023-02-12T14:54:53.908Z,25.38
2023-02-12T14:57:49.744Z,20.42
2023-02-12T15:00:29.734Z,23.50
2023-02-12T15:03:19.941Z,22.65
2023-02-12T15:06:09.961Z,24.08
2023-02-12T15:09:00.985Z,24.00
2023-02-12T15:11:36.038Z,20.80
2023-02-12T15:14:24.481Z,20.10
2023-02-12T15:17:25.957Z,25.98
2023-02-12T15:20:02.654Z,22.67
2023-02-12T15:22:40.315Z,25.70
2023-02-12T15:25:24.536Z,25.40
2023-02-12T15:28:01.825Z,23.38
2023-02-12T15:30:36.861Z,20.90
2023-02-12T15:33:06.912Z,24.20
2023-02-12T15:35:39.777Z,25.05
2023-02-12T15:38:08.013Z,24.70
2023-02-12T15:40:35.413Z,25.98
2023-02-12T15:43:04.809Z,23.67
2023-02-12T15:45:36.415Z,29.25
2023-02-12T15:48:15.835Z,25.08
2023-02-12T15:50:51.467Z,25.70
2023-02-12T15:53:18.385Z,25.08
2023-02-12T15:55:50.744Z,24.70
2023-02-12T15:58:24.153Z,29.88
2023-02-12T16:00:55.188Z,24.10
2023-02-12T16:03:24.723Z,26.13
2023-02-12T16:06:03.164Z,26.77
2023-02-12T16:08:34.409Z,25.35
2023-02-12T16:11:13.723Z,25.30
2023-02-12T16:13:59.817Z,21.48
2023-02-12T16:16:50.649Z,27.42
2023-02-12T16:19:33.825Z,23.42
2023-02-12T16:22:08.535Z,24.33
2023-02-12T16:24:39.451Z,23.40
2023-02-12T16:27:17.331Z,25.20
2023-02-12T16:29:46.790Z,28.27
2023-02-12T16:32:43.137Z,27.52
2023-02-12T16:35:09.655Z,27.73
2023-02-12T16:37:36.120Z,25.95
2023-02-12T16:40:17.566Z,25.50
2023-02-12T16:42:47.269Z,25.98
2023-02-12T16:45:28.876Z,27.65
2023-02-12T16:48:15.083Z,29.35
2023-02-12T16:50:59.437Z,25.60
2023-02-12T16:53:26.022Z,30.35
2023-02-12T16:55:52.759Z,30.20
2023-02-12T16:58:19.277Z,32.20
2023-02-12T17:00:46.077Z,28.33
2023-02-12T17:03:14.258Z,27.27
2023-02-12T17:05:45.121Z,30.33
2023-02-12T17:08:16.524Z,28.45
2023-02-12T17:10:45.674Z,34.80
2023-02-12T17:13:12.312Z,34.38
2023-02-12T17:15:45.591Z,32.00
2023-02-12T17:18:12.429Z,28.98
2023-02-12T17:20:41.207Z,27.83
2023-02-12T17:23:10.120Z,34.17
2023-02-12T17:25:39.050Z,34.72
2023-02-12T17:28:05.964Z,31.92
2023-02-12T17:30:32.994Z,30.10
2023-02-12T17:32:59.642Z,31.15
2023-02-12T17:35:26.724Z,30.55
2023-02-12T17:37:53.274Z,33.15
2023-02-12T17:40:19.968Z,27.85
2023-02-12T17:42:46.578Z,33.92
2023-02-12T17:45:13.150Z,30.00
2023-02-12T17:47:40.106Z,34.80
2023-02-12T17:50:12.357Z,31.10
2023-02-12T17:52:38.967Z,33.03
2023-02-12T17:55:06.845Z,33.30
2023-02-12T17:57:33.489Z,32.35
2023-02-12T18:00:00.055Z,30.75
2023-02-12T18:02:26.825Z,30.88
2023-02-12T18:04:53.550Z,28.20
2023-02-12T18:07:22.271Z,30.08
2023-02-12T18:09:48.969Z,32.92
2023-02-12T18:12:18.705Z,30.13
2023-02-12T18:14:47.824Z,30.70
2023-02-12T18:17:14.477Z,31.98
2023-02-12T18:19:41.117Z,31.63
2023-02-12T18:22:07.732Z,31.13
2023-02-12T18:24:35.108Z,30.75
2023-02-12T18:27:04.142Z,27.10
2023-02-12T18:29:33.061Z,32.30
2023-02-12T18:32:01.979Z,29.63
2023-02-12T18:34:28.621Z,29.60
2023-02-12T18:36:55.294Z,32.78
2023-02-12T18:39:21.868Z,32.45
2023-02-12T18:41:48.536Z,31.23
2023-02-12T18:44:15.693Z,30.83
2023-02-12T18:46:44.715Z,33.67
2023-02-12T18:49:12.423Z,32.75
2023-02-12T18:51:43.792Z,35.78
2023-02-12T18:54:14.424Z,32.13
2023-02-12T18:56:44.071Z,30.17
2023-02-12T18:59:19.435Z,30.27
2023-02-12T19:01:47.411Z,33.95
2023-02-12T19:04:16.165Z,31.25
2023-02-12T19:06:48.198Z,30.58
2023-02-12T19:09:16.743Z,33.22
2023-02-12T19:11:46.591Z,29.42
2023-02-12T19:14:14.835Z,31.30
2023-02-12T19:16:42.133Z,36.92
2023-02-12T19:19:09.157Z,34.55
2023-02-12T19:21:35.816Z,31.35
2023-02-12T19:24:05.087Z,33.80
2023-02-12T19:26:34.402Z,37.67
2023-02-12T19:29:01.688Z,37.28
2023-02-12T19:31:48.332Z,35.70
2023-02-12T19:34:21.503Z,34.55
2023-02-12T19:36:49.722Z,36.28
2023-02-12T19:39:19.548Z,35.67
2023-02-12T19:41:47.089Z,34.90
2023-02-12T19:44:18.901Z,34.35
2023-02-12T19:46:48.922Z,34.97
2023-02-12T19:49:22.202Z,34.80
2023-02-12T19:51:49.664Z,33.17
2023-02-12T19:54:17.780Z,34.50
2023-02-12T19:56:45.055Z,32.47
2023-02-12T19:59:14.666Z,35.42
2023-02-12T20:01:41.449Z,37.08
2023-02-12T20:04:08.121Z,36.90
2023-02-12T20:06:37.026Z,52.72
2023-02-12T20:09:07.343Z,45.25
2023-02-12T20:11:38.382Z,48.13
2023-02-12T20:14:07.748Z,41.58
2023-02-12T20:16:38.074Z,36.35
2023-02-12T20:19:11.193Z,40.05
2023-02-12T20:21:38.574Z,40.35
2023-02-12T20:24:05.389Z,38.78
2023-02-12T20:26:34.656Z,41.33
2023-02-12T20:29:03.990Z,36.78
2023-02-12T20:31:33.920Z,34.15
2023-02-12T20:34:05.852Z,39.58
2023-02-12T20:36:37.848Z,39.55
2023-02-12T20:39:05.711Z,38.42
2023-02-12T20:41:37.035Z,37.85
2023-02-12T20:44:05.928Z,45.78
2023-02-12T20:46:33.001Z,37.05
2023-02-12T20:48:59.566Z,38.75
2023-02-12T20:51:29.040Z,40.55
2023-02-12T20:53:56.089Z,42.28
2023-02-12T20:56:25.740Z,42.22
2023-02-12T20:58:53.580Z,40.72
2023-02-12T21:01:48.115Z,39.67
2023-02-12T21:04:17.131Z,35.50
2023-02-12T21:06:48.387Z,39.42
2023-02-12T21:09:15.434Z,41.47
2023-02-12T21:11:45.238Z,37.88
2023-02-12T21:14:21.933Z,39.70
2023-02-12T21:16:52.487Z,42.00
2023-02-12T21:19:19.805Z,39.25
2023-02-12T21:21:49.111Z,45.22
2023-02-12T21:24:21.763Z,41.20
2023-02-12T21:26:52.205Z,40.13
2023-02-12T21:29:19.764Z,46.85
2023-02-12T21:31:50.476Z,44.58
2023-02-12T21:34:23.018Z,46.72
2023-02-12T21:36:54.241Z,45.63
2023-02-12T21:39:27.521Z,42.53
2023-02-12T21:42:00.187Z,41.97
2023-02-12T21:44:27.492Z,42.83
2023-02-12T21:46:54.990Z,44.75
2023-02-12T21:49:28.235Z,42.13
2023-02-12T21:52:02.732Z,36.55
2023-02-12T21:54:32.291Z,40.70
2023-02-12T21:57:01.764Z,44.55
2023-02-12T21:59:33.840Z,40.95
2023-02-12T22:02:00.761Z,42.45
2023-02-12T22:04:28.040Z,43.05
2023-02-12T22:06:54.812Z,43.05
2023-02-12T22:09:22.613Z,38.67
2023-02-12T22:11:52.577Z,39.30
2023-02-12T22:14:20.952Z,42.47
2023-02-12T22:16:50.214Z,43.53
2023-02-12T22:19:16.851Z,40.97
2023-02-12T22:21:44.508Z,39.97
2023-02-12T22:24:14.066Z,40.78
2023-02-12T22:26:44.376Z,39.80
2023-02-12T22:29:13.132Z,38.10
2023-02-12T22:31:42.428Z,39.00
2023-02-12T22:34:18.629Z,43.28
2023-02-12T22:36:45.696Z,41.28
2023-02-12T22:39:13.763Z,41.95
2023-02-12T22:41:42.048Z,42.42
2023-02-12T22:44:13.438Z,41.13
2023-02-12T22:46:44.129Z,37.85
2023-02-12T22:49:10.844Z,40.13
2023-02-12T22:51:39.599Z,41.38
2023-02-12T22:54:07.868Z,44.45
2023-02-12T22:56:34.440Z,44.25
2023-02-12T22:59:02.141Z,41.33
2023-02-12T23:01:32.876Z,42.92
2023-02-12T23:03:59.685Z,38.78
2023-02-12T23:06:29.530Z,41.90
2023-02-12T23:09:01.608Z,45.85
2023-02-12T23:11:30.065Z,40.22
2023-02-12T23:14:00.023Z,43.45
2023-02-12T23:16:26.792Z,43.63
2023-02-12T23:19:02.892Z,43.05
2023-02-12T23:21:33.725Z,39.05
2023-02-12T23:24:00.463Z,39.28
2023-02-12T23:26:28.754Z,42.20
2023-02-12T23:28:55.981Z,41.20
2023-02-12T23:31:23.038Z,42.75
2023-02-12T23:33:49.679Z,44.83
2023-02-12T23:36:16.526Z,40.80
2023-02-12T23:38:43.199Z,42.20
2023-02-12T23:41:10.111Z,44.58
2023-02-12T23:43:39.186Z,41.28
2023-02-12T23:46:09.388Z,43.65
2023-02-12T23:48:36.118Z,40.55
2023-02-12T23:51:05.468Z,47.15
2023-02-12T23:53:34.355Z,44.45
2023-02-12T23:56:01.100Z,43.70
2023-02-12T23:58:30.213Z,42.35
